Time;durP1;ratioP1;P1;durP2;ratioP2;P2;SDS_P1;SDS_P2;PMS_P1;PMS_P2;Temp;Humidity;BMP_temperature;BMP_pressure;BME280_temperature;BME280_humidity;BME280_pressure;Samples;Min_cycle;Max_cycle;Signal;HPM_P1;HPM_P2
2022/10/22 00:00:08;;;;;;;599.07;563.33;;;13.80;42.00;;;;;;4973605;28;20733;-72
2022/10/22 00:02:33;;;;;;;605.83;569.23;;;13.80;41.80;;;;;;4973662;28;20181;-72
2022/10/22 00:04:59;;;;;;;596.30;559.50;;;13.80;41.80;;;;;;4973541;28;20424;-72
2022/10/22 00:07:24;;;;;;;735.67;688.77;;;13.80;41.10;;;;;;4973335;28;20220;-72
2022/10/22 00:09:50;;;;;;;591.50;556.33;;;13.80;41.50;;;;;;4972150;28;20200;-72
2022/10/22 00:12:17;;;;;;;716.43;669.60;;;13.80;40.70;;;;;;4971937;28;20216;-72
2022/10/22 00:14:42;;;;;;;589.40;552.37;;;13.80;40.80;;;;;;4973489;28;20468;-72
2022/10/22 00:17:08;;;;;;;618.63;579.30;;;13.90;42.00;;;;;;4972172;28;20455;-72
2022/10/22 00:19:34;;;;;;;551.67;517.83;;;13.80;41.00;;;;;;4973267;28;20448;-72
2022/10/22 00:21:59;;;;;;;597.93;560.10;;;13.80;40.70;;;;;;4971726;28;20184;-72
2022/10/22 00:24:25;;;;;;;686.07;643.80;;;13.60;41.80;;;;;;4973275;28;20643;-72
2022/10/22 00:26:51;;;;;;;618.30;580.00;;;13.60;42.00;;;;;;4973122;28;20215;-72
2022/10/22 00:29:19;;;;;;;752.00;701.93;;;13.60;42.20;;;;;;4973284;28;20805;-72
2022/10/22 00:31:48;;;;;;;514.13;486.20;;;13.60;42.40;;;;;;4972972;28;20177;-71
2022/10/22 00:34:15;;;;;;;629.53;592.17;;;13.50;42.90;;;;;;4973218;28;20409;-71
2022/10/22 00:36:41;;;;;;;701.50;656.83;;;13.60;42.60;;;;;;4973058;28;20442;-74
2022/10/22 00:39:06;;;;;;;553.37;519.87;;;13.60;42.00;;;;;;4971927;28;20652;-72
2022/10/22 00:41:32;;;;;;;651.97;608.13;;;13.60;41.80;;;;;;4972826;28;20550;-72
2022/10/22 00:44:01;;;;;;;667.10;626.47;;;13.60;40.90;;;;;;4973087;28;20714;-72
2022/10/22 00:46:27;;;;;;;597.53;560.90;;;13.50;40.40;;;;;;4973219;28;20189;-72
2022/10/22 00:48:55;;;;;;;861.23;799.93;;;13.50;40.60;;;;;;4972929;28;20504;-72
2022/10/22 00:51:24;;;;;;;519.40;486.77;;;13.50;40.10;;;;;;4971358;28;20456;-72
2022/10/22 00:53:54;;;;;;;523.43;495.47;;;13.50;40.20;;;;;;4973001;28;20420;-72
2022/10/22 00:56:21;;;;;;;513.30;480.80;;;13.50;40.00;;;;;;4971834;28;20435;-72
2022/10/22 00:58:54;;;;;;;695.63;650.10;;;13.60;39.90;;;;;;4973015;28;20428;-72
2022/10/22 01:01:28;;;;;;;657.27;617.13;;;13.60;39.40;;;;;;4971704;28;20452;-72
2022/10/22 01:03:55;;;;;;;531.73;495.17;;;13.40;40.70;;;;;;4972910;28;20505;-71
2022/10/22 01:06:27;;;;;;;583.37;548.17;;;13.40;42.00;;;;;;4973428;28;20788;-72
2022/10/22 01:09:00;;;;;;;584.83;549.87;;;13.40;42.50;;;;;;4973330;28;20471;-72
2022/10/22 01:12:11;;;;;;;569.17;533.27;;;13.50;42.70;;;;;;4975178;28;20486;-72
2022/10/22 01:15:09;;;;;;;542.63;509.63;;;13.60;42.20;;;;;;4945371;28;20442;-71
2022/10/22 01:17:51;;;;;;;933.43;862.83;;;13.50;42.20;;;;;;4975595;28;20428;-72
2022/10/22 01:20:23;;;;;;;592.13;558.83;;;13.40;42.70;;;;;;4976427;28;20973;-72
2022/10/22 01:23:07;;;;;;;612.23;575.00;;;13.40;43.40;;;;;;4976338;28;20768;-71
2022/10/22 01:25:46;;;;;;;558.53;528.93;;;13.50;43.40;;;;;;4976627;28;20428;-72
2022/10/22 01:28:40;;;;;;;829.40;775.87;;;13.50;43.00;;;;;;4976453;28;20474;-72
2022/10/22 01:31:08;;;;;;;512.80;483.20;;;13.30;43.90;;;;;;4974827;28;20447;-72
2022/10/22 01:33:35;;;;;;;634.17;596.13;;;13.40;44.30;;;;;;4976324;28;20804;-72
2022/10/22 01:36:02;;;;;;;561.37;530.03;;;13.30;44.20;;;;;;4976369;28;20419;-73
2022/10/22 01:38:29;;;;;;;545.87;515.90;;;13.30;44.30;;;;;;4976163;28;20428;-72
2022/10/22 01:40:56;;;;;;;596.90;559.53;;;13.40;44.40;;;;;;4976010;28;20443;-72
2022/10/22 01:43:22;;;;;;;600.63;563.93;;;13.40;43.80;;;;;;4976162;28;20423;-72
2022/10/22 01:45:56;;;;;;;671.17;627.40;;;13.40;44.30;;;;;;4976001;28;20944;-72
2022/10/22 01:48:50;;;;;;;624.17;582.03;;;13.30;44.20;;;;;;4974741;28;20229;-72
2022/10/22 01:51:45;;;;;;;599.80;564.80;;;13.30;44.20;;;;;;4998028;23;20547;-71
2022/10/22 01:54:44;;;;;;;644.93;604.77;;;13.20;45.50;;;;;;4953531;28;20433;-71
2022/10/22 01:57:35;;;;;;;557.23;523.50;;;13.20;45.80;;;;;;4975940;28;20450;-71
2022/10/22 02:00:10;;;;;;;498.53;466.83;;;13.10;45.90;;;;;;4975709;28;20432;-71
2022/10/22 02:02:43;;;;;;;733.53;679.30;;;13.10;45.80;;;;;;4975600;28;20474;-71
2022/10/22 02:05:27;;;;;;;601.90;568.10;;;13.00;46.20;;;;;;4975877;28;20418;-71
2022/10/22 02:08:05;;;;;;;618.50;577.97;;;13.00;46.80;;;;;;4975726;28;20473;-71
2022/10/22 02:10:31;;;;;;;660.33;622.27;;;13.10;46.10;;;;;;4974327;28;20455;-70
2022/10/22 02:12:58;;;;;;;585.67;549.97;;;13.00;44.70;;;;;;4974145;28;20424;-71
2022/10/22 02:15:28;;;;;;;593.33;554.30;;;13.00;44.00;;;;;;4974267;28;20427;-70
2022/10/22 02:17:55;;;;;;;689.73;643.57;;;12.80;44.00;;;;;;4974201;28;20463;-70
2022/10/22 02:20:26;;;;;;;558.07;528.03;;;12.80;44.70;;;;;;4973371;28;20443;-70
2022/10/22 02:22:52;;;;;;;497.03;470.27;;;12.90;44.90;;;;;;4975138;28;20508;-70
2022/10/22 02:25:20;;;;;;;642.67;604.07;;;13.00;44.00;;;;;;4975403;28;20917;-71
2022/10/22 02:27:52;;;;;;;588.93;554.50;;;13.00;43.50;;;;;;4973982;28;20593;-71
2022/10/22 02:30:21;;;;;;;592.90;560.20;;;12.90;43.90;;;;;;4975217;28;20498;-71
2022/10/22 02:32:55;;;;;;;568.40;531.23;;;12.90;43.70;;;;;;4973649;28;20427;-71
2022/10/22 02:35:24;;;;;;;600.87;563.03;;;12.90;42.80;;;;;;4975155;28;20788;-71
2022/10/22 02:37:52;;;;;;;410.93;389.63;;;12.90;43.90;;;;;;4973871;28;20431;-71
2022/10/22 02:40:18;;;;;;;749.67;702.20;;;12.90;43.90;;;;;;4975053;28;20460;-71
2022/10/22 02:42:47;;;;;;;499.10;470.40;;;12.90;43.90;;;;;;4974765;28;20439;-71
2022/10/22 02:45:13;;;;;;;715.53;672.80;;;13.00;43.20;;;;;;4974997;28;20440;-71
2022/10/22 02:47:38;;;;;;;625.53;589.47;;;13.10;42.90;;;;;;4974749;28;20451;-71
2022/10/22 02:50:05;;;;;;;602.67;565.83;;;13.10;44.10;;;;;;4974780;28;20212;-71
2022/10/22 02:52:30;;;;;;;632.97;592.77;;;13.00;44.00;;;;;;4974616;28;20239;-70
2022/10/22 02:54:56;;;;;;;856.00;797.97;;;13.00;44.00;;;;;;4974797;28;20421;-71
2022/10/22 02:57:21;;;;;;;569.30;539.20;;;13.00;44.00;;;;;;4974840;28;20193;-71
2022/10/22 02:59:47;;;;;;;583.53;546.00;;;13.00;44.40;;;;;;4974740;28;20199;-70
2022/10/22 03:02:12;;;;;;;769.40;720.60;;;12.90;43.30;;;;;;4974382;28;20189;-71
2022/10/22 03:04:38;;;;;;;744.87;697.07;;;12.90;43.90;;;;;;4974627;28;20653;-71
2022/10/22 03:07:03;;;;;;;604.40;567.63;;;12.90;43.90;;;;;;4973339;28;20588;-71
2022/10/22 03:09:29;;;;;;;466.33;442.03;;;13.00;42.90;;;;;;4973360;28;20177;-70
2022/10/22 03:11:54;;;;;;;631.13;593.77;;;13.00;42.50;;;;;;4974286;28;20212;-71
2022/10/22 03:14:20;;;;;;;620.67;581.07;;;13.00;41.90;;;;;;4974609;28;20184;-71
2022/10/22 03:16:45;;;;;;;689.03;648.37;;;13.00;41.60;;;;;;4974377;28;20181;-71
2022/10/22 03:19:11;;;;;;;517.00;486.97;;;13.00;42.30;;;;;;4974312;28;20176;-71
2022/10/22 03:21:41;;;;;;;661.20;620.47;;;13.10;41.50;;;;;;4974145;28;20340;-70
2022/10/22 03:24:29;;;;;;;687.07;642.80;;;13.10;41.20;;;;;;4974339;28;20184;-71
2022/10/22 03:26:54;;;;;;;672.53;627.37;;;13.10;41.10;;;;;;4974021;28;21073;-71
2022/10/22 03:29:24;;;;;;;665.80;621.77;;;13.10;40.20;;;;;;4974163;28;20510;-71
2022/10/22 03:31:51;;;;;;;574.87;537.73;;;13.20;39.00;;;;;;4973710;28;20217;-71
2022/10/22 03:34:16;;;;;;;591.93;553.63;;;13.20;39.00;;;;;;4974047;28;20427;-71
2022/10/22 03:36:42;;;;;;;544.23;505.30;;;13.20;39.00;;;;;;4974043;28;20424;-71
2022/10/22 03:39:09;;;;;;;553.77;520.70;;;13.20;38.00;;;;;;4974043;28;20186;-71
2022/10/22 03:41:35;;;;;;;645.90;602.97;;;13.30;37.90;;;;;;4973760;28;20527;-71
2022/10/22 03:44:02;;;;;;;629.67;585.07;;;13.30;37.80;;;;;;4972625;28;20463;-71
2022/10/22 03:46:28;;;;;;;613.30;572.03;;;13.30;37.70;;;;;;4973875;28;20426;-70
2022/10/22 03:48:53;;;;;;;808.23;749.40;;;13.30;37.00;;;;;;4973742;28;20476;-71
2022/10/22 03:51:19;;;;;;;618.70;578.63;;;13.30;37.70;;;;;;4973430;28;20620;-70
2022/10/22 03:53:44;;;;;;;521.23;489.20;;;13.40;37.20;;;;;;4973786;28;20184;-71
2022/10/22 03:56:12;;;;;;;705.97;655.73;;;13.50;36.90;;;;;;4973822;28;20203;-71
2022/10/22 03:58:39;;;;;;;734.20;686.10;;;13.50;35.10;;;;;;4973642;28;20220;-70
2022/10/22 04:01:10;;;;;;;557.27;521.07;;;13.40;36.40;;;;;;4973205;28;20499;-71
2022/10/22 04:03:36;;;;;;;784.07;726.43;;;13.40;37.40;;;;;;4973634;28;20532;-71
2022/10/22 04:06:08;;;;;;;387.70;361.80;;;13.30;36.50;;;;;;4973660;28;20424;-71
2022/10/22 04:08:34;;;;;;;371.50;350.87;;;13.30;37.20;;;;;;4973484;28;20471;-71
2022/10/22 04:11:00;;;;;;;561.40;524.57;;;13.30;37.10;;;;;;4973135;28;20439;-71
2022/10/22 04:13:25;;;;;;;557.30;521.87;;;13.20;36.80;;;;;;4972164;28;20181;-70
2022/10/22 04:15:51;;;;;;;611.17;571.70;;;13.20;37.70;;;;;;4973440;28;20186;-72
2022/10/22 04:18:18;;;;;;;827.90;769.07;;;13.20;37.40;;;;;;4973413;28;20216;-71
2022/10/22 04:20:44;;;;;;;714.13;666.63;;;13.20;38.20;;;;;;4973046;28;20251;-71
2022/10/22 04:23:10;;;;;;;565.33;529.93;;;13.10;38.00;;;;;;4973373;28;20423;-71
2022/10/22 04:25:36;;;;;;;437.07;404.97;;;13.00;38.80;;;;;;4973308;28;20515;-71
2022/10/22 04:28:01;;;;;;;732.30;685.00;;;13.00;38.80;;;;;;4973194;28;20478;-71
2022/10/22 04:30:27;;;;;;;787.33;733.47;;;12.90;38.70;;;;;;4972182;28;20201;-70
2022/10/22 04:32:52;;;;;;;461.33;431.10;;;12.90;39.00;;;;;;4972924;28;20192;-71
2022/10/22 04:35:18;;;;;;;363.40;343.57;;;12.80;39.50;;;;;;4972248;28;20717;-71
2022/10/22 04:37:43;;;;;;;882.40;819.80;;;12.90;39.00;;;;;;4973356;28;20240;-70
2022/10/22 04:40:09;;;;;;;648.90;606.40;;;12.90;38.70;;;;;;4973182;28;20205;-71
2022/10/22 04:42:35;;;;;;;544.87;511.73;;;12.90;38.70;;;;;;4973088;28;20216;-70
2022/10/22 04:45:00;;;;;;;853.33;792.93;;;12.80;39.20;;;;;;4979159;28;20455;-71
2022/10/22 04:47:26;;;;;;;349.90;330.23;;;12.80;38.70;;;;;;4979745;28;20207;-70
2022/10/22 04:49:51;;;;;;;904.87;837.97;;;12.80;39.50;;;;;;4979514;28;20179;-71
2022/10/22 04:52:17;;;;;;;359.57;338.37;;;12.80;39.00;;;;;;4979476;28;20545;-70
2022/10/22 04:54:43;;;;;;;328.30;308.90;;;12.80;41.50;;;;;;4979791;28;20560;-71
2022/10/22 04:57:08;;;;;;;614.63;574.77;;;12.80;40.00;;;;;;4980012;28;20184;-70
2022/10/22 04:59:34;;;;;;;690.93;646.60;;;12.90;38.80;;;;;;4978265;28;20192;-71
2022/10/22 05:01:59;;;;;;;438.10;413.73;;;12.80;39.30;;;;;;4979266;28;20559;-71
2022/10/22 05:04:25;;;;;;;705.13;656.30;;;12.70;39.80;;;;;;4979567;28;20180;-71
2022/10/22 05:06:51;;;;;;;611.53;571.63;;;12.70;40.10;;;;;;4979574;28;20188;-71
2022/10/22 05:09:18;;;;;;;861.77;799.23;;;12.60;40.40;;;;;;4979561;28;20179;-70
2022/10/22 05:11:47;;;;;;;749.33;701.57;;;12.60;41.20;;;;;;4979074;28;20438;-70
2022/10/22 05:14:16;;;;;;;896.77;831.27;;;12.60;41.60;;;;;;4978096;28;20800;-70
2022/10/22 05:16:41;;;;;;;807.93;750.90;;;12.60;41.70;;;;;;4979543;28;20416;-70
2022/10/22 05:19:07;;;;;;;669.23;619.93;;;12.70;41.70;;;;;;4979402;28;20744;-70
2022/10/22 05:21:33;;;;;;;583.07;542.63;;;12.60;41.70;;;;;;4977769;28;20211;-70
2022/10/22 05:23:59;;;;;;;1065.13;975.33;;;12.60;42.10;;;;;;4978052;28;20642;-71
2022/10/22 05:26:26;;;;;;;711.53;662.20;;;12.60;42.40;;;;;;4979574;28;20466;-71
2022/10/22 05:28:52;;;;;;;551.20;520.50;;;12.70;43.60;;;;;;4979325;28;20470;-71
2022/10/22 05:31:18;;;;;;;682.23;634.93;;;12.70;43.20;;;;;;4979176;28;20516;-71
2022/10/22 05:33:45;;;;;;;653.57;611.77;;;12.70;42.90;;;;;;4979548;28;20414;-71
2022/10/22 05:36:16;;;;;;;763.10;712.33;;;12.80;43.00;;;;;;4979440;28;20423;-71
2022/10/22 05:38:42;;;;;;;663.47;620.30;;;12.70;42.60;;;;;;4979876;28;20475;-70
2022/10/22 05:41:10;;;;;;;646.67;602.10;;;12.80;42.50;;;;;;4978384;28;20932;-71
2022/10/22 05:43:37;;;;;;;534.37;505.80;;;12.80;42.10;;;;;;4979862;28;20773;-70
2022/10/22 05:46:08;;;;;;;841.47;785.90;;;12.80;42.90;;;;;;4982529;28;20420;-72
2022/10/22 05:48:34;;;;;;;648.43;610.67;;;12.80;42.00;;;;;;4982565;28;20812;-71
2022/10/22 05:51:18;;;;;;;683.33;638.97;;;12.80;42.20;;;;;;4979239;28;20455;-71
2022/10/22 05:53:43;;;;;;;747.63;702.90;;;12.70;43.70;;;;;;4980559;28;20419;-71
2022/10/22 05:56:14;;;;;;;617.87;576.27;;;12.70;42.00;;;;;;4978664;28;20785;-71
2022/10/22 05:58:41;;;;;;;631.83;592.90;;;12.60;43.50;;;;;;4977911;28;20180;-71
2022/10/22 06:01:10;;;;;;;604.23;569.10;;;12.70;43.70;;;;;;4976316;28;20479;-71
2022/10/22 06:03:36;;;;;;;604.77;568.27;;;12.70;43.70;;;;;;4976323;28;20424;-71
2022/10/22 06:06:06;;;;;;;651.57;609.97;;;12.70;44.30;;;;;;4976383;28;20416;-71
2022/10/22 06:08:32;;;;;;;721.57;677.90;;;12.80;42.70;;;;;;4976318;28;20248;-71
2022/10/22 06:10:58;;;;;;;548.77;516.90;;;12.80;42.30;;;;;;4976845;28;20801;-71
2022/10/22 06:13:24;;;;;;;439.50;414.53;;;12.90;41.00;;;;;;4976302;28;20430;-71
2022/10/22 06:15:52;;;;;;;607.17;570.77;;;12.90;41.40;;;;;;4976776;28;20791;-71
2022/10/22 06:18:18;;;;;;;386.03;364.30;;;13.00;40.70;;;;;;4976916;28;20186;-71
2022/10/22 06:20:44;;;;;;;770.57;719.60;;;13.00;40.70;;;;;;4974639;28;20444;-71
2022/10/22 06:23:10;;;;;;;545.87;515.40;;;13.00;39.90;;;;;;4975414;28;20485;-71
2022/10/22 06:25:35;;;;;;;779.30;718.27;;;12.90;39.80;;;;;;4975538;28;20506;-70
2022/10/22 06:28:01;;;;;;;694.53;646.17;;;13.00;40.00;;;;;;4975432;28;20299;-70
2022/10/22 06:30:26;;;;;;;553.13;518.13;;;13.00;40.10;;;;;;4975346;28;20228;-71
2022/10/22 06:32:52;;;;;;;635.60;594.90;;;13.10;39.50;;;;;;4975412;28;20501;-71
2022/10/22 06:35:17;;;;;;;455.70;431.00;;;13.10;38.40;;;;;;4975495;28;20204;-70
2022/10/22 06:37:43;;;;;;;676.63;630.20;;;13.10;39.10;;;;;;4975274;28;20657;-71
2022/10/22 06:40:09;;;;;;;497.03;466.90;;;13.10;39.40;;;;;;4975300;28;20674;-71
2022/10/22 06:42:35;;;;;;;479.47;455.10;;;13.20;39.60;;;;;;4974919;28;20204;-70
2022/10/22 06:45:00;;;;;;;396.50;374.97;;;13.30;40.00;;;;;;4975107;28;20417;-71
2022/10/22 06:47:26;;;;;;;799.20;745.30;;;13.40;39.30;;;;;;4974956;28;20274;-72
2022/10/22 06:49:52;;;;;;;801.47;745.30;;;13.50;39.30;;;;;;4974824;28;20232;-70
2022/10/22 06:52:17;;;;;;;899.43;831.07;;;13.60;39.40;;;;;;4974658;28;20200;-71
2022/10/22 06:54:43;;;;;;;871.43;809.53;;;13.60;39.60;;;;;;4974984;28;20554;-71
2022/10/22 06:57:08;;;;;;;807.27;750.80;;;13.80;39.50;;;;;;4975686;28;20542;-71
2022/10/22 06:59:34;;;;;;;895.63;829.50;;;13.80;39.00;;;;;;4975009;28;20192;-71
2022/10/22 07:01:59;;;;;;;779.37;725.83;;;13.90;37.40;;;;;;4974423;28;20213;-71
2022/10/22 07:04:25;;;;;;;750.80;698.53;;;13.90;36.40;;;;;;4974822;28;20196;-71
2022/10/22 07:06:54;;;;;;;595.33;552.97;;;13.90;36.60;;;;;;4974324;28;20186;-71
2022/10/22 07:09:19;;;;;;;665.93;619.03;;;14.00;37.20;;;;;;4974607;28;20581;-71
2022/10/22 07:11:45;;;;;;;867.67;805.33;;;14.00;37.30;;;;;;4976313;28;20436;-71
2022/10/22 07:14:12;;;;;;;771.50;720.13;;;14.10;36.50;;;;;;4973386;28;20177;-71
2022/10/22 07:16:38;;;;;;;654.30;608.17;;;14.20;35.70;;;;;;4973309;28;20428;-71
2022/10/22 07:19:04;;;;;;;670.77;626.63;;;14.30;35.10;;;;;;4974381;28;20432;-71
2022/10/22 07:21:31;;;;;;;786.67;731.23;;;14.30;34.80;;;;;;4974025;28;20448;-71
2022/10/22 07:23:58;;;;;;;592.53;549.47;;;14.30;33.30;;;;;;4974321;28;20421;-71
2022/10/22 07:26:29;;;;;;;672.00;622.97;;;14.40;34.40;;;;;;4974217;28;20420;-71
2022/10/22 07:28:55;;;;;;;769.27;715.47;;;14.50;34.20;;;;;;4974178;28;20871;-71
2022/10/22 07:31:20;;;;;;;696.50;653.97;;;14.50;34.90;;;;;;4973832;28;20599;-71
2022/10/22 07:33:46;;;;;;;746.43;695.27;;;14.60;33.80;;;;;;4974095;28;20200;-71
2022/10/22 07:36:16;;;;;;;564.17;527.17;;;14.60;33.20;;;;;;4974126;28;20635;-71
2022/10/22 07:38:46;;;;;;;865.30;801.77;;;14.80;33.30;;;;;;4974147;28;20178;-71
2022/10/22 07:41:13;;;;;;;314.30;293.77;;;14.90;32.60;;;;;;4973561;28;20448;-71
2022/10/22 07:43:39;;;;;;;422.37;398.67;;;15.00;31.80;;;;;;4973847;28;20417;-71
2022/10/22 07:46:05;;;;;;;839.20;780.73;;;15.40;30.60;;;;;;4973849;28;20467;-71
2022/10/22 07:48:31;;;;;;;784.93;711.93;;;15.60;29.50;;;;;;4973805;28;20236;-71
2022/10/22 07:50:57;;;;;;;607.43;559.10;;;15.80;28.90;;;;;;4973912;28;20498;-71
2022/10/22 07:53:22;;;;;;;679.03;623.40;;;15.90;28.70;;;;;;4973766;28;20177;-71
2022/10/22 07:55:49;;;;;;;616.97;569.57;;;16.00;28.20;;;;;;4973700;28;20828;-71
2022/10/22 07:58:16;;;;;;;644.13;594.80;;;16.10;28.10;;;;;;4973747;28;20205;-71
2022/10/22 08:00:42;;;;;;;704.30;650.20;;;16.50;28.30;;;;;;4973531;28;20468;-71
2022/10/22 08:03:12;;;;;;;702.83;650.27;;;16.80;27.90;;;;;;4973694;28;20444;-72
2022/10/22 08:05:42;;;;;;;311.50;286.00;;;17.10;27.40;;;;;;4973665;28;20216;-69
2022/10/22 08:08:12;;;;;;;546.50;507.43;;;17.40;26.90;;;;;;4973511;28;20460;-69
2022/10/22 08:10:38;;;;;;;701.77;644.17;;;17.70;26.30;;;;;;4973385;28;20867;-72
2022/10/22 08:13:05;;;;;;;923.90;846.23;;;18.00;22.70;;;;;;4973573;28;20423;-72
2022/10/22 08:15:30;;;;;;;512.47;464.43;;;18.10;22.60;;;;;;4973533;28;20533;-71
2022/10/22 08:17:56;;;;;;;701.60;636.07;;;18.20;22.80;;;;;;4972938;28;20424;-71
2022/10/22 08:20:22;;;;;;;927.37;837.50;;;18.20;21.50;;;;;;4973453;28;20200;-71
2022/10/22 08:22:47;;;;;;;1023.57;933.47;;;18.10;21.30;;;;;;4974020;28;20675;-72
2022/10/22 08:25:14;;;;;;;653.47;600.20;;;18.10;22.10;;;;;;4973204;28;20181;-71
2022/10/22 08:27:39;;;;;;;793.73;730.07;;;17.80;21.80;;;;;;4973233;28;20236;-71
2022/10/22 08:30:06;;;;;;;1007.00;921.73;;;17.70;21.80;;;;;;4971962;28;20445;-71
2022/10/22 08:32:31;;;;;;;434.27;399.13;;;17.60;22.80;;;;;;4972994;28;20200;-71
2022/10/22 08:34:57;;;;;;;1171.77;999.90;;;17.50;23.00;;;;;;4973270;28;20473;-71
2022/10/22 08:37:23;;;;;;;732.03;676.40;;;17.40;22.20;;;;;;4973230;28;20173;-71
2022/10/22 08:39:48;;;;;;;870.17;798.43;;;17.40;23.40;;;;;;4973043;28;20209;-71
2022/10/22 08:42:36;;;;;;;741.23;680.40;;;17.40;23.00;;;;;;4972940;28;20177;-71
2022/10/22 08:45:13;;;;;;;881.47;805.17;;;17.30;23.40;;;;;;4971945;28;20215;-71
2022/10/22 08:48:00;;;;;;;432.93;400.23;;;17.10;23.80;;;;;;4973093;28;20463;-71
2022/10/22 08:50:38;;;;;;;780.73;720.77;;;17.20;23.90;;;;;;4973145;28;20452;-71
2022/10/22 08:53:12;;;;;;;824.40;761.17;;;17.30;23.40;;;;;;4972706;28;20420;-72
2022/10/22 08:55:38;;;;;;;934.70;864.40;;;17.30;23.80;;;;;;4973045;28;20424;-71
2022/10/22 08:58:20;;;;;;;778.47;717.07;;;17.30;23.40;;;;;;4973019;28;20421;-71
2022/10/22 09:00:46;;;;;;;973.47;886.80;;;17.40;23.40;;;;;;4971383;28;20201;-71
2022/10/22 09:03:29;;;;;;;195.57;181.47;;;17.40;23.40;;;;;;4973040;28;20890;-71
2022/10/22 09:06:09;;;;;;;368.20;341.47;;;17.40;24.90;;;;;;4973154;28;20177;-71
2022/10/22 09:08:36;;;;;;;825.57;762.57;;;17.40;24.20;;;;;;4972908;28;20472;-72
2022/10/22 09:11:05;;;;;;;861.97;788.30;;;17.40;24.40;;;;;;4972504;28;20432;-71
2022/10/22 09:13:30;;;;;;;654.47;603.50;;;17.50;23.50;;;;;;4972839;28;20413;-72
2022/10/22 09:16:10;;;;;;;813.80;750.33;;;17.50;23.50;;;;;;4971602;28;20409;-70
2022/10/22 09:18:47;;;;;;;945.90;863.33;;;17.50;24.10;;;;;;4973115;28;20593;-68
2022/10/22 09:21:33;;;;;;;658.70;606.13;;;17.40;23.40;;;;;;4972550;28;20444;-70
2022/10/22 09:24:27;;;;;;;433.43;400.87;;;17.50;24.50;;;;;;4972837;28;20864;-72
2022/10/22 09:26:55;;;;;;;536.43;490.97;;;17.40;23.40;;;;;;4972816;28;20498;-70
2022/10/22 09:29:24;;;;;;;812.60;744.97;;;17.50;23.50;;;;;;4973212;28;20605;-69
2022/10/22 09:31:49;;;;;;;763.60;704.37;;;17.40;24.20;;;;;;4976065;28;20487;-69
2022/10/22 09:34:19;;;;;;;722.90;666.23;;;17.50;25.00;;;;;;4975173;28;20417;-69
2022/10/22 09:36:44;;;;;;;547.63;501.87;;;17.40;23.40;;;;;;4975222;28;20663;-70
2022/10/22 09:39:33;;;;;;;707.27;647.50;;;17.50;24.10;;;;;;4976423;28;20492;-70
2022/10/22 09:41:58;;;;;;;880.53;810.43;;;17.50;23.50;;;;;;4975928;28;20221;-70
2022/10/22 09:44:24;;;;;;;720.37;661.17;;;17.50;23.50;;;;;;4976108;28;20477;-70
2022/10/22 09:46:50;;;;;;;562.87;518.40;;;17.60;24.00;;;;;;4976208;28;20178;-70
2022/10/22 09:49:19;;;;;;;768.93;706.20;;;17.50;24.30;;;;;;4976256;28;20197;-70
2022/10/22 09:51:52;;;;;;;755.43;697.07;;;17.60;24.10;;;;;;4975715;28;20205;-72
2022/10/22 09:54:31;;;;;;;775.20;712.93;;;17.70;23.30;;;;;;4974957;28;20820;-70
2022/10/22 09:57:24;;;;;;;395.20;364.20;;;17.70;23.60;;;;;;4975738;28;20464;-71
2022/10/22 09:59:52;;;;;;;674.37;616.67;;;17.80;23.70;;;;;;4975859;28;20766;-71
2022/10/22 10:02:25;;;;;;;807.80;740.37;;;17.90;22.00;;;;;;4975668;28;20417;-71
2022/10/22 10:04:53;;;;;;;617.97;563.57;;;17.90;21.80;;;;;;4975777;28;20428;-71
2022/10/22 10:07:24;;;;;;;506.57;465.20;;;18.00;21.70;;;;;;4975471;28;20476;-71
2022/10/22 10:09:52;;;;;;;843.07;761.43;;;18.00;21.90;;;;;;4975637;28;20521;-71
2022/10/22 10:12:17;;;;;;;404.30;371.07;;;18.20;21.40;;;;;;4975511;28;20507;-70
2022/10/22 10:15:00;;;;;;;520.83;474.00;;;18.30;21.10;;;;;;4975613;28;20500;-71
2022/10/22 10:17:35;;;;;;;1027.20;931.07;;;18.50;20.90;;;;;;4975662;28;20264;-71
2022/10/22 10:20:37;;;;;;;420.27;388.10;;;18.50;19.90;;;;;;4975701;28;20436;-70
2022/10/22 10:23:06;;;;;;;340.87;314.00;;;18.70;18.80;;;;;;4934401;29;20422;-71
2022/10/22 10:26:08;;;;;;;754.47;688.70;;;18.80;19.50;;;;;;4967917;28;20973;-71
2022/10/22 10:28:39;;;;;;;777.87;698.80;;;18.80;18.70;;;;;;4974586;28;20464;-71
2022/10/22 10:31:30;;;;;;;699.17;637.03;;;18.70;19.50;;;;;;4974038;28;20733;-71
2022/10/22 10:34:09;;;;;;;880.93;788.77;;;18.80;19.30;;;;;;4974110;28;20436;-71
2022/10/22 10:36:56;;;;;;;787.97;709.10;;;18.80;19.30;;;;;;4973884;28;20819;-71
2022/10/22 10:39:53;;;;;;;860.40;777.43;;;18.80;17.00;;;;;;4975584;28;20408;-71
2022/10/22 10:42:53;;;;;;;1007.33;898.57;;;18.80;18.40;;;;;;4949497;28;20738;-71
2022/10/22 10:45:37;;;;;;;692.50;625.07;;;18.80;18.00;;;;;;4975165;28;20417;-71
2022/10/22 10:48:23;;;;;;;736.27;659.20;;;18.60;18.50;;;;;;4973702;28;20515;-71
2022/10/22 10:50:52;;;;;;;792.47;708.90;;;18.60;18.80;;;;;;4974560;28;20456;-71
2022/10/22 10:53:41;;;;;;;1120.93;999.90;;;18.40;18.90;;;;;;4974778;28;20421;-71
2022/10/22 10:56:25;;;;;;;1196.90;999.90;;;18.20;19.70;;;;;;4974895;28;20575;-71
2022/10/22 10:59:16;;;;;;;654.90;593.97;;;18.20;19.80;;;;;;4974808;28;20567;-71
2022/10/22 11:01:53;;;;;;;470.53;427.40;;;18.10;19.60;;;;;;4974481;28;20486;-71
2022/10/22 11:04:40;;;;;;;860.17;775.03;;;18.30;19.80;;;;;;4974879;28;20405;-71
2022/10/22 11:07:12;;;;;;;882.57;791.10;;;18.30;19.10;;;;;;4975065;28;20433;-72
2022/10/22 11:09:56;;;;;;;930.20;830.93;;;18.50;17.00;;;;;;4975524;28;20424;-71
2022/10/22 11:12:29;;;;;;;699.50;632.90;;;18.70;17.30;;;;;;4974729;28;20496;-71
2022/10/22 11:15:06;;;;;;;752.00;674.20;;;18.70;16.40;;;;;;4974524;28;20905;-71
2022/10/22 11:17:40;;;;;;;1154.77;938.30;;;18.70;15.70;;;;;;4974447;28;20444;-71
2022/10/22 11:20:15;;;;;;;994.43;817.63;;;18.80;15.70;;;;;;4974680;28;20516;-71
2022/10/22 11:22:48;;;;;;;830.03;755.13;;;18.90;15.80;;;;;;4974192;28;20417;-71
2022/10/22 11:25:31;;;;;;;420.13;389.10;;;18.80;15.70;;;;;;4974363;28;20435;-71
2022/10/22 11:28:22;;;;;;;808.27;722.13;;;18.80;15.70;;;;;;4974255;28;20464;-71
2022/10/22 11:30:57;;;;;;;1309.73;999.90;;;18.90;15.80;;;;;;4972554;28;20531;-71
2022/10/22 11:33:27;;;;;;;1089.03;925.93;;;18.90;15.80;;;;;;4974248;28;20503;-71
2022/10/22 11:35:54;;;;;;;611.10;545.00;;;18.90;16.20;;;;;;4974251;28;20420;-70
2022/10/22 11:38:24;;;;;;;753.17;617.77;;;19.00;14.80;;;;;;4974116;28;20413;-71
2022/10/22 11:41:01;;;;;;;639.23;569.40;;;19.10;15.90;;;;;;4973874;28;20905;-70
2022/10/22 11:43:47;;;;;;;1172.23;925.53;;;19.20;14.30;;;;;;4973976;28;20821;-71
2022/10/22 11:46:13;;;;;;;1266.63;999.90;;;19.30;14.50;;;;;;4973921;28;20427;-71
2022/10/22 11:48:38;;;;;;;646.93;578.67;;;19.30;14.30;;;;;;4973823;28;20491;-71
2022/10/22 11:51:28;;;;;;;809.10;704.20;;;19.20;14.50;;;;;;4972252;28;20296;-71
2022/10/22 11:54:00;;;;;;;1240.80;950.73;;;19.30;14.80;;;;;;4972864;28;20660;-71
2022/10/22 11:56:35;;;;;;;1513.00;999.90;;;19.30;14.40;;;;;;4973813;28;20520;-71
2022/10/22 11:59:01;;;;;;;921.47;822.97;;;19.30;14.40;;;;;;4973725;28;20418;-71
2022/10/22 12:01:38;;;;;;;1059.60;875.30;;;19.20;14.40;;;;;;4973347;28;20820;-71
2022/10/22 12:04:21;;;;;;;1215.40;991.77;;;19.30;15.00;;;;;;4973616;28;20404;-71
2022/10/22 12:06:56;;;;;;;979.90;852.73;;;19.30;15.10;;;;;;4973557;28;20498;-71
2022/10/22 12:09:25;;;;;;;1006.67;913.27;;;19.30;15.30;;;;;;4973603;28;20471;-72
2022/10/22 12:11:51;;;;;;;737.73;643.17;;;19.00;14.60;;;;;;4973244;28;20425;-70
2022/10/22 12:14:26;;;;;;;1378.27;999.90;;;19.00;14.60;;;;;;4973440;28;20413;-71
2022/10/22 12:16:57;;;;;;;575.87;521.67;;;18.90;14.80;;;;;;4973492;28;20412;-70
2022/10/22 12:19:24;;;;;;;1378.23;999.90;;;18.80;14.10;;;;;;4972128;28;20416;-70
2022/10/22 12:22:26;;;;;;;1600.43;999.90;;;18.80;14.80;;;;;;4973009;28;20436;-70
2022/10/22 12:24:54;;;;;;;722.47;644.60;;;18.90;15.70;;;;;;4973382;28;20423;-71